sensor_id;sensor_type;location;lat;lon;timestamp;temperature;humidity
66928;DHT22;59882;45.624;11.698;2022-10-23T00:01:30;15.40;83.00
66928;DHT22;59882;45.624;11.698;2022-10-23T00:03:59;15.40;83.00
66928;DHT22;59882;45.624;11.698;2022-10-23T00:06:25;15.40;83.10
66928;DHT22;59882;45.624;11.698;2022-10-23T00:08:51;15.40;83.00
66928;DHT22;59882;45.624;11.698;2022-10-23T00:11:20;15.40;83.10
66928;DHT22;59882;45.624;11.698;2022-10-23T00:13:46;15.30;83.20
66928;DHT22;59882;45.624;11.698;2022-10-23T00:16:12;15.30;83.20
66928;DHT22;59882;45.624;11.698;2022-10-23T00:18:38;15.30;83.20
66928;DHT22;59882;45.624;11.698;2022-10-23T00:21:06;15.30;83.20
66928;DHT22;59882;45.624;11.698;2022-10-23T00:23:32;15.40;83.10
66928;DHT22;59882;45.624;11.698;2022-10-23T00:25:58;15.30;83.00
66928;DHT22;59882;45.624;11.698;2022-10-23T00:28:25;15.40;83.10
66928;DHT22;59882;45.624;11.698;2022-10-23T00:30:50;15.30;83.20
66928;DHT22;59882;45.624;11.698;2022-10-23T00:33:16;15.30;83.20
66928;DHT22;59882;45.624;11.698;2022-10-23T00:35:42;15.30;83.20
66928;DHT22;59882;45.624;11.698;2022-10-23T00:38:08;15.30;83.20
66928;DHT22;59882;45.624;11.698;2022-10-23T00:40:35;15.30;83.20
66928;DHT22;59882;45.624;11.698;2022-10-23T00:43:01;15.30;83.30
66928;DHT22;59882;45.624;11.698;2022-10-23T00:45:29;15.30;83.40
66928;DHT22;59882;45.624;11.698;2022-10-23T00:47:59;15.30;83.40
66928;DHT22;59882;45.624;11.698;2022-10-23T00:50:26;15.40;83.30
66928;DHT22;59882;45.624;11.698;2022-10-23T00:52:55;15.40;83.30
66928;DHT22;59882;45.624;11.698;2022-10-23T00:55:22;15.40;83.20
66928;DHT22;59882;45.624;11.698;2022-10-23T00:57:50;15.40;83.20
66928;DHT22;59882;45.624;11.698;2022-10-23T01:00:29;15.40;83.20
66928;DHT22;59882;45.624;11.698;2022-10-23T01:02:55;15.40;83.20
66928;DHT22;59882;45.624;11.698;2022-10-23T01:05:26;15.40;83.20
66928;DHT22;59882;45.624;11.698;2022-10-23T01:08:04;15.30;83.20
66928;DHT22;59882;45.624;11.698;2022-10-23T01:10:36;15.40;83.10
66928;DHT22;59882;45.624;11.698;2022-10-23T01:13:11;15.40;83.10
66928;DHT22;59882;45.624;11.698;2022-10-23T01:16:10;15.40;83.10
66928;DHT22;59882;45.624;11.698;2022-10-23T01:21:24;15.40;83.40
66928;DHT22;59882;45.624;11.698;2022-10-23T01:24:03;15.30;83.40
66928;DHT22;59882;45.624;11.698;2022-10-23T01:26:40;15.30;83.60
66928;DHT22;59882;45.624;11.698;2022-10-23T01:30:00;15.30;83.60
66928;DHT22;59882;45.624;11.698;2022-10-23T01:32:04;15.40;83.70
66928;DHT22;59882;45.624;11.698;2022-10-23T01:34:47;15.30;83.70
66928;DHT22;59882;45.624;11.698;2022-10-23T01:37:20;15.40;83.70
66928;DHT22;59882;45.624;11.698;2022-10-23T01:39:51;15.40;83.60
66928;DHT22;59882;45.624;11.698;2022-10-23T01:42:22;15.40;83.60
66928;DHT22;59882;45.624;11.698;2022-10-23T01:44:58;15.40;83.50
66928;DHT22;59882;45.624;11.698;2022-10-23T01:47:27;15.40;83.50
66928;DHT22;59882;45.624;11.698;2022-10-23T01:49:55;15.40;83.40
66928;DHT22;59882;45.624;11.698;2022-10-23T01:52:22;15.40;83.40
66928;DHT22;59882;45.624;11.698;2022-10-23T01:54:49;15.40;83.40
66928;DHT22;59882;45.624;11.698;2022-10-23T01:57:17;15.50;83.40
66928;DHT22;59882;45.624;11.698;2022-10-23T02:00:14;15.50;83.50
66928;DHT22;59882;45.624;11.698;2022-10-23T02:02:42;15.40;83.50
66928;DHT22;59882;45.624;11.698;2022-10-23T02:05:16;15.40;83.60
66928;DHT22;59882;45.624;11.698;2022-10-23T02:07:42;15.40;83.70
66928;DHT22;59882;45.624;11.698;2022-10-23T02:10:09;15.40;83.80
66928;DHT22;59882;45.624;11.698;2022-10-23T02:12:45;15.40;83.60
66928;DHT22;59882;45.624;11.698;2022-10-23T02:23:03;15.40;83.70
66928;DHT22;59882;45.624;11.698;2022-10-23T02:25:37;15.30;83.80
66928;DHT22;59882;45.624;11.698;2022-10-23T02:28:09;15.30;83.80
66928;DHT22;59882;45.624;11.698;2022-10-23T02:30:40;15.30;83.90
66928;DHT22;59882;45.624;11.698;2022-10-23T02:33:09;15.30;83.90
66928;DHT22;59882;45.624;11.698;2022-10-23T02:35:36;15.30;83.90
66928;DHT22;59882;45.624;11.698;2022-10-23T02:38:02;15.30;84.00
66928;DHT22;59882;45.624;11.698;2022-10-23T02:40:41;15.30;84.00
66928;DHT22;59882;45.624;11.698;2022-10-23T02:43:20;15.30;84.10
66928;DHT22;59882;45.624;11.698;2022-10-23T02:45:58;15.30;84.10
66928;DHT22;59882;45.624;11.698;2022-10-23T02:48:32;15.30;84.20
66928;DHT22;59882;45.624;11.698;2022-10-23T02:51:13;15.30;84.10
66928;DHT22;59882;45.624;11.698;2022-10-23T02:56:49;15.30;84.10
66928;DHT22;59882;45.624;11.698;2022-10-23T02:59:32;15.30;84.30
66928;DHT22;59882;45.624;11.698;2022-10-23T03:02:06;15.40;84.40
66928;DHT22;59882;45.624;11.698;2022-10-23T03:04:34;15.40;84.50
66928;DHT22;59882;45.624;11.698;2022-10-23T03:07:01;15.40;84.60
66928;DHT22;59882;45.624;11.698;2022-10-23T03:09:27;15.40;84.60
66928;DHT22;59882;45.624;11.698;2022-10-23T03:11:54;15.40;84.50
66928;DHT22;59882;45.624;11.698;2022-10-23T03:14:19;15.50;84.60
66928;DHT22;59882;45.624;11.698;2022-10-23T03:16:45;15.50;84.50
66928;DHT22;59882;45.624;11.698;2022-10-23T03:19:11;15.50;84.40
66928;DHT22;59882;45.624;11.698;2022-10-23T03:21:36;15.50;84.40
66928;DHT22;59882;45.624;11.698;2022-10-23T03:24:02;15.50;84.30
66928;DHT22;59882;45.624;11.698;2022-10-23T03:26:28;15.50;84.10
66928;DHT22;59882;45.624;11.698;2022-10-23T03:28:53;15.50;84.10
66928;DHT22;59882;45.624;11.698;2022-10-23T03:31:19;15.60;84.10
66928;DHT22;59882;45.624;11.698;2022-10-23T03:33:45;15.60;84.00
66928;DHT22;59882;45.624;11.698;2022-10-23T03:36:10;15.60;84.00
66928;DHT22;59882;45.624;11.698;2022-10-23T03:38:36;15.60;83.90
66928;DHT22;59882;45.624;11.698;2022-10-23T03:41:01;15.60;83.90
66928;DHT22;59882;45.624;11.698;2022-10-23T03:43:27;15.60;83.90
66928;DHT22;59882;45.624;11.698;2022-10-23T03:45:55;15.60;83.80
66928;DHT22;59882;45.624;11.698;2022-10-23T03:48:21;15.50;83.80
66928;DHT22;59882;45.624;11.698;2022-10-23T03:50:49;15.60;83.90
66928;DHT22;59882;45.624;11.698;2022-10-23T03:53:15;15.50;84.00
66928;DHT22;59882;45.624;11.698;2022-10-23T03:55:40;15.60;83.90
66928;DHT22;59882;45.624;11.698;2022-10-23T03:58:06;15.50;83.70
66928;DHT22;59882;45.624;11.698;2022-10-23T04:00:31;15.50;83.80
66928;DHT22;59882;45.624;11.698;2022-10-23T04:02:57;15.50;83.90
66928;DHT22;59882;45.624;11.698;2022-10-23T04:05:23;15.40;83.80
66928;DHT22;59882;45.624;11.698;2022-10-23T04:07:48;15.40;83.80
66928;DHT22;59882;45.624;11.698;2022-10-23T04:10:14;15.40;83.70
66928;DHT22;59882;45.624;11.698;2022-10-23T04:12:39;15.40;83.80
66928;DHT22;59882;45.624;11.698;2022-10-23T04:15:05;15.40;83.80
66928;DHT22;59882;45.624;11.698;2022-10-23T04:17:31;15.30;83.80
66928;DHT22;59882;45.624;11.698;2022-10-23T04:19:56;15.30;83.80
66928;DHT22;59882;45.624;11.698;2022-10-23T04:22:22;15.30;83.90
66928;DHT22;59882;45.624;11.698;2022-10-23T04:24:48;15.30;84.00
66928;DHT22;59882;45.624;11.698;2022-10-23T04:27:13;15.30;84.00
66928;DHT22;59882;45.624;11.698;2022-10-23T04:29:39;15.40;84.00
66928;DHT22;59882;45.624;11.698;2022-10-23T04:32:06;15.30;84.10
66928;DHT22;59882;45.624;11.698;2022-10-23T04:34:32;15.30;84.20
66928;DHT22;59882;45.624;11.698;2022-10-23T04:36:57;15.40;84.30
66928;DHT22;59882;45.624;11.698;2022-10-23T04:39:23;15.40;84.30
66928;DHT22;59882;45.624;11.698;2022-10-23T04:41:49;15.40;84.40
66928;DHT22;59882;45.624;11.698;2022-10-23T04:44:14;15.40;84.40
66928;DHT22;59882;45.624;11.698;2022-10-23T04:46:40;15.30;84.30
66928;DHT22;59882;45.624;11.698;2022-10-23T04:49:06;15.30;84.20
66928;DHT22;59882;45.624;11.698;2022-10-23T04:51:32;15.30;84.10
66928;DHT22;59882;45.624;11.698;2022-10-23T04:53:57;15.30;84.10
66928;DHT22;59882;45.624;11.698;2022-10-23T04:56:23;15.30;84.10
66928;DHT22;59882;45.624;11.698;2022-10-23T04:58:48;15.30;84.10
66928;DHT22;59882;45.624;11.698;2022-10-23T05:01:14;15.30;84.00
66928;DHT22;59882;45.624;11.698;2022-10-23T05:03:40;15.30;84.20
66928;DHT22;59882;45.624;11.698;2022-10-23T05:06:06;15.30;84.30
66928;DHT22;59882;45.624;11.698;2022-10-23T05:08:31;15.20;84.30
66928;DHT22;59882;45.624;11.698;2022-10-23T05:10:57;15.20;84.40
66928;DHT22;59882;45.624;11.698;2022-10-23T05:13:23;15.30;84.30
66928;DHT22;59882;45.624;11.698;2022-10-23T05:15:50;15.30;84.30
66928;DHT22;59882;45.624;11.698;2022-10-23T05:18:27;15.30;84.30
66928;DHT22;59882;45.624;11.698;2022-10-23T05:21:08;15.30;84.30
66928;DHT22;59882;45.624;11.698;2022-10-23T05:23:35;15.30;84.20
66928;DHT22;59882;45.624;11.698;2022-10-23T05:26:03;15.30;84.10
66928;DHT22;59882;45.624;11.698;2022-10-23T05:28:28;15.30;84.40
66928;DHT22;59882;45.624;11.698;2022-10-23T05:30:56;15.30;84.50
66928;DHT22;59882;45.624;11.698;2022-10-23T05:33:23;15.20;84.50
66928;DHT22;59882;45.624;11.698;2022-10-23T05:35:49;15.20;84.60
66928;DHT22;59882;45.624;11.698;2022-10-23T05:38:15;15.30;84.60
66928;DHT22;59882;45.624;11.698;2022-10-23T05:40:41;15.30;84.60
66928;DHT22;59882;45.624;11.698;2022-10-23T05:43:06;15.30;84.70
66928;DHT22;59882;45.624;11.698;2022-10-23T05:45:32;15.30;84.70
66928;DHT22;59882;45.624;11.698;2022-10-23T05:47:58;15.30;84.70
66928;DHT22;59882;45.624;11.698;2022-10-23T05:50:23;15.20;84.70
66928;DHT22;59882;45.624;11.698;2022-10-23T05:52:49;15.20;84.70
66928;DHT22;59882;45.624;11.698;2022-10-23T05:55:15;15.20;84.70
66928;DHT22;59882;45.624;11.698;2022-10-23T05:57:41;15.20;84.80
66928;DHT22;59882;45.624;11.698;2022-10-23T06:00:07;15.20;84.80
66928;DHT22;59882;45.624;11.698;2022-10-23T06:02:33;15.20;84.80
66928;DHT22;59882;45.624;11.698;2022-10-23T06:04:58;15.10;84.70
66928;DHT22;59882;45.624;11.698;2022-10-23T06:07:26;15.10;84.70
66928;DHT22;59882;45.624;11.698;2022-10-23T06:09:52;15.10;84.70
66928;DHT22;59882;45.624;11.698;2022-10-23T06:12:19;15.10;84.80
66928;DHT22;59882;45.624;11.698;2022-10-23T06:14:45;15.10;84.90
66928;DHT22;59882;45.624;11.698;2022-10-23T06:17:11;15.10;84.90
66928;DHT22;59882;45.624;11.698;2022-10-23T06:19:37;15.10;85.00
66928;DHT22;59882;45.624;11.698;2022-10-23T06:22:04;15.20;85.00
66928;DHT22;59882;45.624;11.698;2022-10-23T06:24:29;15.20;85.00
66928;DHT22;59882;45.624;11.698;2022-10-23T06:26:55;15.20;85.20
66928;DHT22;59882;45.624;11.698;2022-10-23T06:29:21;15.30;85.20
66928;DHT22;59882;45.624;11.698;2022-10-23T06:31:47;15.30;85.10
66928;DHT22;59882;45.624;11.698;2022-10-23T06:34:12;15.30;85.20
66928;DHT22;59882;45.624;11.698;2022-10-23T06:36:39;15.40;85.10
66928;DHT22;59882;45.624;11.698;2022-10-23T06:39:04;15.40;85.20
66928;DHT22;59882;45.624;11.698;2022-10-23T06:41:30;15.30;85.20
66928;DHT22;59882;45.624;11.698;2022-10-23T06:43:56;15.40;85.10
66928;DHT22;59882;45.624;11.698;2022-10-23T06:46:22;15.40;85.10
66928;DHT22;59882;45.624;11.698;2022-10-23T06:48:48;15.40;85.00
66928;DHT22;59882;45.624;11.698;2022-10-23T06:51:15;15.40;84.90
66928;DHT22;59882;45.624;11.698;2022-10-23T06:53:41;15.50;85.00
66928;DHT22;59882;45.624;11.698;2022-10-23T06:56:08;15.50;85.00
66928;DHT22;59882;45.624;11.698;2022-10-23T06:58:35;15.50;85.20
66928;DHT22;59882;45.624;11.698;2022-10-23T07:01:02;15.60;85.10
66928;DHT22;59882;45.624;11.698;2022-10-23T07:03:28;15.60;85.10
66928;DHT22;59882;45.624;11.698;2022-10-23T07:05:54;15.60;84.90
66928;DHT22;59882;45.624;11.698;2022-10-23T07:08:20;15.70;84.80
66928;DHT22;59882;45.624;11.698;2022-10-23T07:10:46;15.70;84.70
66928;DHT22;59882;45.624;11.698;2022-10-23T07:13:12;15.80;84.60
66928;DHT22;59882;45.624;11.698;2022-10-23T07:15:39;15.80;84.70
66928;DHT22;59882;45.624;11.698;2022-10-23T07:18:05;15.80;84.60
66928;DHT22;59882;45.624;11.698;2022-10-23T07:20:31;15.80;84.50
66928;DHT22;59882;45.624;11.698;2022-10-23T07:22:57;15.90;84.50
66928;DHT22;59882;45.624;11.698;2022-10-23T07:25:24;15.90;84.50
66928;DHT22;59882;45.624;11.698;2022-10-23T07:27:50;15.90;84.50
66928;DHT22;59882;45.624;11.698;2022-10-23T07:30:16;15.90;84.40
66928;DHT22;59882;45.624;11.698;2022-10-23T07:32:43;16.00;84.20
66928;DHT22;59882;45.624;11.698;2022-10-23T07:35:10;16.00;84.10
66928;DHT22;59882;45.624;11.698;2022-10-23T07:37:36;16.10;84.10
66928;DHT22;59882;45.624;11.698;2022-10-23T07:40:03;16.20;84.00
66928;DHT22;59882;45.624;11.698;2022-10-23T07:42:29;16.20;83.90
66928;DHT22;59882;45.624;11.698;2022-10-23T07:44:55;16.20;83.90
66928;DHT22;59882;45.624;11.698;2022-10-23T07:47:20;16.30;84.20
66928;DHT22;59882;45.624;11.698;2022-10-23T07:49:46;16.30;84.20
66928;DHT22;59882;45.624;11.698;2022-10-23T07:52:12;16.40;84.10
66928;DHT22;59882;45.624;11.698;2022-10-23T07:54:38;16.40;84.00
66928;DHT22;59882;45.624;11.698;2022-10-23T07:57:03;16.50;83.70
66928;DHT22;59882;45.624;11.698;2022-10-23T07:59:34;16.60;83.50
66928;DHT22;59882;45.624;11.698;2022-10-23T08:02:00;16.70;83.20
66928;DHT22;59882;45.624;11.698;2022-10-23T08:04:25;16.70;82.60
66928;DHT22;59882;45.624;11.698;2022-10-23T08:06:51;16.80;82.70
66928;DHT22;59882;45.624;11.698;2022-10-23T08:09:17;16.90;82.60
66928;DHT22;59882;45.624;11.698;2022-10-23T08:11:42;16.90;82.40
66928;DHT22;59882;45.624;11.698;2022-10-23T08:14:09;17.00;82.40
66928;DHT22;59882;45.624;11.698;2022-10-23T08:16:36;17.20;82.30
66928;DHT22;59882;45.624;11.698;2022-10-23T08:19:03;17.20;82.40
66928;DHT22;59882;45.624;11.698;2022-10-23T08:21:29;17.40;82.40
66928;DHT22;59882;45.624;11.698;2022-10-23T08:23:57;17.50;82.30
66928;DHT22;59882;45.624;11.698;2022-10-23T08:26:24;17.60;82.10
66928;DHT22;59882;45.624;11.698;2022-10-23T08:28:51;17.70;81.90
66928;DHT22;59882;45.624;11.698;2022-10-23T08:31:19;17.70;81.60
66928;DHT22;59882;45.624;11.698;2022-10-23T08:33:45;17.80;81.60
66928;DHT22;59882;45.624;11.698;2022-10-23T08:36:17;17.80;81.30
66928;DHT22;59882;45.624;11.698;2022-10-23T08:38:43;17.90;81.00
66928;DHT22;59882;45.624;11.698;2022-10-23T08:41:40;17.90;80.10
66928;DHT22;59882;45.624;11.698;2022-10-23T08:49:48;18.10;79.60
66928;DHT22;59882;45.624;11.698;2022-10-23T08:52:38;18.20;79.30
66928;DHT22;59882;45.624;11.698;2022-10-23T08:55:16;18.30;79.70
66928;DHT22;59882;45.624;11.698;2022-10-23T08:57:50;18.40;79.00
66928;DHT22;59882;45.624;11.698;2022-10-23T09:00:18;18.40;78.70
66928;DHT22;59882;45.624;11.698;2022-10-23T09:02:49;18.40;79.00
66928;DHT22;59882;45.624;11.698;2022-10-23T09:05:30;18.40;79.00
66928;DHT22;59882;45.624;11.698;2022-10-23T09:11:16;18.50;79.20
66928;DHT22;59882;45.624;11.698;2022-10-23T09:19:29;18.80;78.00
66928;DHT22;59882;45.624;11.698;2022-10-23T09:21:55;18.90;77.30
66928;DHT22;59882;45.624;11.698;2022-10-23T09:24:23;18.90;76.30
66928;DHT22;59882;45.624;11.698;2022-10-23T09:26:51;18.90;76.60
66928;DHT22;59882;45.624;11.698;2022-10-23T09:29:31;19.00;76.60
66928;DHT22;59882;45.624;11.698;2022-10-23T09:32:04;19.00;76.60
66928;DHT22;59882;45.624;11.698;2022-10-23T09:34:31;19.10;76.80
66928;DHT22;59882;45.624;11.698;2022-10-23T09:37:03;19.10;76.50
66928;DHT22;59882;45.624;11.698;2022-10-23T09:39:41;19.10;76.50
66928;DHT22;59882;45.624;11.698;2022-10-23T09:42:24;19.20;76.20
66928;DHT22;59882;45.624;11.698;2022-10-23T09:44:52;19.20;76.60
66928;DHT22;59882;45.624;11.698;2022-10-23T09:47:20;19.20;76.20
66928;DHT22;59882;45.624;11.698;2022-10-23T09:49:52;19.30;75.60
66928;DHT22;59882;45.624;11.698;2022-10-23T09:52:27;19.30;75.10
66928;DHT22;59882;45.624;11.698;2022-10-23T09:55:18;19.40;74.50
66928;DHT22;59882;45.624;11.698;2022-10-23T09:57:44;19.40;73.70
66928;DHT22;59882;45.624;11.698;2022-10-23T10:00:16;19.40;73.60
66928;DHT22;59882;45.624;11.698;2022-10-23T10:02:53;19.40;73.70
66928;DHT22;59882;45.624;11.698;2022-10-23T10:05:34;19.50;73.40
66928;DHT22;59882;45.624;11.698;2022-10-23T10:10:34;19.70;73.50
66928;DHT22;59882;45.624;11.698;2022-10-23T10:15:54;19.80;73.60
66928;DHT22;59882;45.624;11.698;2022-10-23T10:26:50;20.20;72.40
66928;DHT22;59882;45.624;11.698;2022-10-23T10:40:35;20.60;71.80
66928;DHT22;59882;45.624;11.698;2022-10-23T10:43:27;20.60;71.80
66928;DHT22;59882;45.624;11.698;2022-10-23T10:45:57;20.80;71.30
66928;DHT22;59882;45.624;11.698;2022-10-23T10:48:50;20.90;71.10
66928;DHT22;59882;45.624;11.698;2022-10-23T10:51:29;21.00;71.30
66928;DHT22;59882;45.624;11.698;2022-10-23T10:54:03;21.10;69.60
66928;DHT22;59882;45.624;11.698;2022-10-23T10:56:35;21.10;69.80
66928;DHT22;59882;45.624;11.698;2022-10-23T11:02:01;21.20;68.80
66928;DHT22;59882;45.624;11.698;2022-10-23T11:04:56;21.30;69.50
66928;DHT22;59882;45.624;11.698;2022-10-23T11:07:22;21.40;69.20
66928;DHT22;59882;45.624;11.698;2022-10-23T11:09:49;21.50;70.10
66928;DHT22;59882;45.624;11.698;2022-10-23T11:12:22;21.60;69.30
66928;DHT22;59882;45.624;11.698;2022-10-23T11:14:49;21.70;68.00
66928;DHT22;59882;45.624;11.698;2022-10-23T11:17:38;21.80;68.10
66928;DHT22;59882;45.624;11.698;2022-10-23T11:20:29;21.90;68.50
66928;DHT22;59882;45.624;11.698;2022-10-23T11:37:38;22.50;64.70
66928;DHT22;59882;45.624;11.698;2022-10-23T11:45:23;22.60;66.70
66928;DHT22;59882;45.624;11.698;2022-10-23T11:50:26;22.90;65.90
66928;DHT22;59882;45.624;11.698;2022-10-23T11:52:55;23.10;65.60
66928;DHT22;59882;45.624;11.698;2022-10-23T11:55:24;23.30;67.00
66928;DHT22;59882;45.624;11.698;2022-10-23T11:58:14;23.50;67.30
66928;DHT22;59882;45.624;11.698;2022-10-23T12:00:55;23.80;64.30
66928;DHT22;59882;45.624;11.698;2022-10-23T12:03:31;24.10;65.80
66928;DHT22;59882;45.624;11.698;2022-10-23T12:06:01;24.40;62.50
66928;DHT22;59882;45.624;11.698;2022-10-23T12:08:30;24.80;63.20
66928;DHT22;59882;45.624;11.698;2022-10-23T12:10:56;25.30;61.00
66928;DHT22;59882;45.624;11.698;2022-10-23T12:16:03;26.20;56.90
66928;DHT22;59882;45.624;11.698;2022-10-23T12:18:30;26.60;57.90
66928;DHT22;59882;45.624;11.698;2022-10-23T12:21:00;27.00;55.70
66928;DHT22;59882;45.624;11.698;2022-10-23T12:23:41;27.40;53.90
66928;DHT22;59882;45.624;11.698;2022-10-23T12:37:44;29.60;49.40
66928;DHT22;59882;45.624;11.698;2022-10-23T12:40:15;29.70;46.40
66928;DHT22;59882;45.624;11.698;2022-10-23T12:42:50;29.70;47.30
66928;DHT22;59882;45.624;11.698;2022-10-23T12:47:53;29.30;48.00
66928;DHT22;59882;45.624;11.698;2022-10-23T12:50:25;29.30;47.30
66928;DHT22;59882;45.624;11.698;2022-10-23T12:55:19;30.00;46.60
66928;DHT22;59882;45.624;11.698;2022-10-23T12:57:45;30.40;48.10
66928;DHT22;59882;45.624;11.698;2022-10-23T13:00:17;30.60;45.70
66928;DHT22;59882;45.624;11.698;2022-10-23T13:02:44;30.80;45.00
66928;DHT22;59882;45.624;11.698;2022-10-23T13:05:16;30.90;43.40
66928;DHT22;59882;45.624;11.698;2022-10-23T13:07:44;30.80;43.50
66928;DHT22;59882;45.624;11.698;2022-10-23T13:10:18;30.60;45.80
66928;DHT22;59882;45.624;11.698;2022-10-23T13:13:00;30.40;43.90
66928;DHT22;59882;45.624;11.698;2022-10-23T13:15:39;30.40;45.10
66928;DHT22;59882;45.624;11.698;2022-10-23T13:18:06;30.40;43.90
66928;DHT22;59882;45.624;11.698;2022-10-23T13:20:35;30.60;45.60
66928;DHT22;59882;45.624;11.698;2022-10-23T13:23:15;30.90;43.40
66928;DHT22;59882;45.624;11.698;2022-10-23T13:25:41;31.10;45.20
66928;DHT22;59882;45.624;11.698;2022-10-23T13:30:36;31.50;43.40
66928;DHT22;59882;45.624;11.698;2022-10-23T13:33:14;31.70;42.20
66928;DHT22;59882;45.624;11.698;2022-10-23T13:35:39;31.90;41.40
66928;DHT22;59882;45.624;11.698;2022-10-23T13:38:09;32.00;42.40
66928;DHT22;59882;45.624;11.698;2022-10-23T13:40:34;32.00;42.10
66928;DHT22;59882;45.624;11.698;2022-10-23T13:43:00;32.00;41.00
66928;DHT22;59882;45.624;11.698;2022-10-23T13:45:26;32.00;42.60
66928;DHT22;59882;45.624;11.698;2022-10-23T13:47:52;31.90;40.60
66928;DHT22;59882;45.624;11.698;2022-10-23T13:50:18;31.80;41.10
66928;DHT22;59882;45.624;11.698;2022-10-23T13:52:45;31.70;40.30
66928;DHT22;59882;45.624;11.698;2022-10-23T13:55:23;31.60;42.00
66928;DHT22;59882;45.624;11.698;2022-10-23T13:57:49;31.50;42.00
66928;DHT22;59882;45.624;11.698;2022-10-23T14:00:15;31.20;41.50
66928;DHT22;59882;45.624;11.698;2022-10-23T14:02:41;30.90;42.00
66928;DHT22;59882;45.624;11.698;2022-10-23T14:05:08;30.40;43.10
66928;DHT22;59882;45.624;11.698;2022-10-23T14:07:33;29.90;44.40
66928;DHT22;59882;45.624;11.698;2022-10-23T14:09:59;29.40;45.30
66928;DHT22;59882;45.624;11.698;2022-10-23T14:12:25;28.90;46.10
66928;DHT22;59882;45.624;11.698;2022-10-23T14:14:51;28.40;47.00
66928;DHT22;59882;45.624;11.698;2022-10-23T14:17:20;27.90;47.70
66928;DHT22;59882;45.624;11.698;2022-10-23T14:19:46;27.50;48.90
66928;DHT22;59882;45.624;11.698;2022-10-23T14:22:11;27.10;50.10
66928;DHT22;59882;45.624;11.698;2022-10-23T14:24:37;26.70;50.80
66928;DHT22;59882;45.624;11.698;2022-10-23T14:27:03;26.40;51.50
66928;DHT22;59882;45.624;11.698;2022-10-23T14:29:30;26.10;52.00
66928;DHT22;59882;45.624;11.698;2022-10-23T14:31:55;25.80;53.00
66928;DHT22;59882;45.624;11.698;2022-10-23T14:34:21;25.50;54.10
66928;DHT22;59882;45.624;11.698;2022-10-23T14:36:47;25.30;54.30
66928;DHT22;59882;45.624;11.698;2022-10-23T14:39:12;25.10;54.80
66928;DHT22;59882;45.624;11.698;2022-10-23T14:41:38;24.90;55.70
66928;DHT22;59882;45.624;11.698;2022-10-23T14:44:05;24.70;56.00
66928;DHT22;59882;45.624;11.698;2022-10-23T14:46:31;24.50;56.70
66928;DHT22;59882;45.624;11.698;2022-10-23T14:48:57;24.40;57.10
66928;DHT22;59882;45.624;11.698;2022-10-23T14:51:25;24.30;57.50
66928;DHT22;59882;45.624;11.698;2022-10-23T14:53:56;24.20;58.10
66928;DHT22;59882;45.624;11.698;2022-10-23T14:56:24;24.10;58.50
66928;DHT22;59882;45.624;11.698;2022-10-23T14:58:50;24.00;59.30
66928;DHT22;59882;45.624;11.698;2022-10-23T15:01:15;23.90;59.80
66928;DHT22;59882;45.624;11.698;2022-10-23T15:03:41;23.80;60.00
66928;DHT22;59882;45.624;11.698;2022-10-23T15:06:08;23.70;60.20
66928;DHT22;59882;45.624;11.698;2022-10-23T15:08:35;23.60;60.50
66928;DHT22;59882;45.624;11.698;2022-10-23T15:11:03;23.50;60.50
66928;DHT22;59882;45.624;11.698;2022-10-23T15:13:29;23.40;60.80
66928;DHT22;59882;45.624;11.698;2022-10-23T15:16:03;23.40;61.20
66928;DHT22;59882;45.624;11.698;2022-10-23T15:18:29;23.30;61.90
66928;DHT22;59882;45.624;11.698;2022-10-23T15:20:55;23.20;62.30
66928;DHT22;59882;45.624;11.698;2022-10-23T15:23:20;23.10;62.90
66928;DHT22;59882;45.624;11.698;2022-10-23T15:25:54;23.10;63.10
66928;DHT22;59882;45.624;11.698;2022-10-23T15:28:20;23.00;63.50
66928;DHT22;59882;45.624;11.698;2022-10-23T15:30:45;22.90;63.40
66928;DHT22;59882;45.624;11.698;2022-10-23T15:33:11;22.90;64.00
66928;DHT22;59882;45.624;11.698;2022-10-23T15:35:37;22.90;64.20
66928;DHT22;59882;45.624;11.698;2022-10-23T15:38:02;22.70;64.80
66928;DHT22;59882;45.624;11.698;2022-10-23T15:40:28;22.70;64.60
66928;DHT22;59882;45.624;11.698;2022-10-23T15:42:53;22.60;65.40
66928;DHT22;59882;45.624;11.698;2022-10-23T15:45:19;22.60;65.20
66928;DHT22;59882;45.624;11.698;2022-10-23T15:47:45;22.50;65.60
66928;DHT22;59882;45.624;11.698;2022-10-23T15:50:10;22.40;65.90
66928;DHT22;59882;45.624;11.698;2022-10-23T15:52:36;22.40;66.20
66928;DHT22;59882;45.624;11.698;2022-10-23T15:55:02;22.40;66.20
66928;DHT22;59882;45.624;11.698;2022-10-23T15:57:28;22.40;66.10
66928;DHT22;59882;45.624;11.698;2022-10-23T15:59:55;22.20;67.00
66928;DHT22;59882;45.624;11.698;2022-10-23T16:02:21;22.20;67.10
66928;DHT22;59882;45.624;11.698;2022-10-23T16:04:47;22.10;66.80
66928;DHT22;59882;45.624;11.698;2022-10-23T16:07:13;22.10;66.90
66928;DHT22;59882;45.624;11.698;2022-10-23T16:09:38;22.00;67.20
66928;DHT22;59882;45.624;11.698;2022-10-23T16:12:04;21.90;67.20
66928;DHT22;59882;45.624;11.698;2022-10-23T16:14:30;21.90;67.40
66928;DHT22;59882;45.624;11.698;2022-10-23T16:16:55;21.90;68.00
66928;DHT22;59882;45.624;11.698;2022-10-23T16:19:22;21.70;68.40
66928;DHT22;59882;45.624;11.698;2022-10-23T16:21:48;21.70;69.00
66928;DHT22;59882;45.624;11.698;2022-10-23T16:24:14;21.60;69.40
66928;DHT22;59882;45.624;11.698;2022-10-23T16:26:40;21.50;69.00
66928;DHT22;59882;45.624;11.698;2022-10-23T16:29:07;21.40;69.50
66928;DHT22;59882;45.624;11.698;2022-10-23T16:31:33;21.40;69.30
66928;DHT22;59882;45.624;11.698;2022-10-23T16:34:00;21.30;69.60
66928;DHT22;59882;45.624;11.698;2022-10-23T16:36:27;21.30;70.40
66928;DHT22;59882;45.624;11.698;2022-10-23T16:38:53;21.20;71.00
66928;DHT22;59882;45.624;11.698;2022-10-23T16:41:18;21.10;71.30
66928;DHT22;59882;45.624;11.698;2022-10-23T16:43:44;21.00;71.40
66928;DHT22;59882;45.624;11.698;2022-10-23T16:46:16;21.00;71.90
66928;DHT22;59882;45.624;11.698;2022-10-23T16:48:42;20.90;72.10
66928;DHT22;59882;45.624;11.698;2022-10-23T16:51:12;20.90;71.90
66928;DHT22;59882;45.624;11.698;2022-10-23T16:53:39;20.80;72.30
66928;DHT22;59882;45.624;11.698;2022-10-23T16:56:06;20.70;72.00
66928;DHT22;59882;45.624;11.698;2022-10-23T16:58:33;20.70;72.20
66928;DHT22;59882;45.624;11.698;2022-10-23T17:01:10;20.70;72.30
66928;DHT22;59882;45.624;11.698;2022-10-23T17:03:38;20.60;72.60
66928;DHT22;59882;45.624;11.698;2022-10-23T17:06:06;20.60;72.40